Hovedside
METAR-TAF:

METAR-TAF

Lufthavner :

Wellington internasjonale lufthavn

Wellington, New Zealand

breddegrad: 41-20S, lengdegrad: 174-48E, høyde over havet: 12 m

Gjeldene værobservasjon

Denne rapporten ble laget for 34 minutter siden, klokken 03:00 UTC
Vind 12 kt fra Nord-nordøst
Temperatur 14°C
Luftfuktighet 67%
Trykk 1008 hPa
Sikt 10 km eller mer

METAR: NZWN 170300Z AUTO 02012KT 9999 NCD 14/08 Q1008 NOSIG

Tid: 15:34 (03:34 UTC)

Varsel

Denne rapporten ble laget for 4 timer og 17 minutter siden, klokken 23:17 UTC
Varsel gyldig fra 17. klokken 00 UTC til 18. klokken 00 UTC
Vind 15 kt fra Nord
Sikt 10 km eller mer
Få skyer i en høyde av 2500 ft
Blir
fra 17. klokken 06 UTC til 17. klokken 08 UTC
Vind 5 kt fra Nordøst

TAF: NZWN 162317Z 1700/1800 36015KT 9999 FEW025 BECMG 1706/1708 04005KT

Værobservasjoner og værvarsel for over 4000 flyplasser (METAR- og TAF-rapporter).

Tilgjengelige stasjoner er representert av de røde og gule prikkene på kartet.

Hold musepekeren over prikken for å se navnet på stasjonen.

Klikk så for å se værobservasjoner og -varsler.

For å forandre kartet kan du klikke på den grønne knappen med svart kryss for å zoome inn, på den grønne knappen med strek for å zoome ut, eller på de grønne pilene for å se tilstøtende kart.


METAR-TAF: